Time;durP1;ratioP1;P1;durP2;ratioP2;P2;SDS_P1;SDS_P2;PMS_P1;PMS_P2;Temp;Humidity;BMP_temperature;BMP_pressure;BME280_temperature;BME280_humidity;BME280_pressure;Samples;Min_cycle;Max_cycle;Signal;HPM_P1;HPM_P2
2021/07/24 00:01:23;;;;;;;14.07;12.57;;;20.30;99.90;;;;;;5071872;28;20207;-48
2021/07/24 00:03:52;;;;;;;13.23;11.88;;;20.30;99.90;;;;;;5072051;28;20351;-50
2021/07/24 00:06:40;;;;;;;12.43;11.23;;;20.20;99.90;;;;;;5071400;28;20215;-51
2021/07/24 00:09:08;;;;;;;14.07;12.32;;;20.20;99.90;;;;;;5072083;28;20223;-49
2021/07/24 00:11:36;;;;;;;12.82;11.45;;;20.20;99.90;;;;;;5072017;28;20211;-49
2021/07/24 00:14:04;;;;;;;15.95;11.80;;;20.20;99.90;;;;;;5071778;28;20238;-54
2021/07/24 00:16:32;;;;;;;14.93;11.82;;;20.10;99.90;;;;;;5071881;28;20234;-50
2021/07/24 00:19:02;;;;;;;15.93;12.02;;;20.10;99.90;;;;;;5071555;28;20239;-48
2021/07/24 00:21:30;;;;;;;13.02;11.82;;;20.10;99.90;;;;;;5071673;28;20361;-50
2021/07/24 00:23:57;;;;;;;13.27;12.02;;;20.00;99.90;;;;;;5071691;28;20302;-51
2021/07/24 00:26:25;;;;;;;13.38;12.10;;;20.00;99.90;;;;;;5071629;28;20746;-50
2021/07/24 00:28:53;;;;;;;13.20;11.80;;;20.00;99.90;;;;;;5071642;28;20322;-53
2021/07/24 00:31:21;;;;;;;13.77;12.25;;;20.00;99.90;;;;;;5071635;28;20563;-50
2021/07/24 00:33:49;;;;;;;15.05;13.32;;;19.90;99.90;;;;;;5071672;28;20229;-51
2021/07/24 00:36:18;;;;;;;13.82;11.95;;;19.90;99.90;;;;;;5071552;28;20294;-52
2021/07/24 00:38:46;;;;;;;13.35;11.95;;;19.80;99.90;;;;;;5071673;28;20301;-51
2021/07/24 00:41:20;;;;;;;16.13;13.13;;;19.80;99.90;;;;;;5071618;28;20306;-48
2021/07/24 00:43:51;;;;;;;13.63;11.23;;;19.80;99.90;;;;;;5071531;28;20575;-51
2021/07/24 00:46:21;;;;;;;15.75;13.00;;;19.80;99.90;;;;;;5071461;28;20207;-51
2021/07/24 00:48:52;;;;;;;13.00;11.73;;;19.80;99.90;;;;;;5071398;28;20237;-50
2021/07/24 00:51:28;;;;;;;13.57;11.73;;;19.70;99.90;;;;;;5071590;28;20311;-53
2021/07/24 00:53:56;;;;;;;14.27;11.93;;;19.70;99.90;;;;;;5071292;28;20578;-52
2021/07/24 00:56:25;;;;;;;14.25;12.48;;;19.70;99.90;;;;;;5071376;28;20765;-52
2021/07/24 00:58:55;;;;;;;14.55;12.13;;;19.60;99.90;;;;;;5071107;28;20663;-50
2021/07/24 01:01:23;;;;;;;15.05;12.80;;;19.60;99.90;;;;;;5071190;28;20273;-50
2021/07/24 01:03:52;;;;;;;15.15;13.57;;;19.50;99.90;;;;;;5071318;28;20218;-52
2021/07/24 01:06:20;;;;;;;13.65;12.35;;;19.50;99.90;;;;;;5071318;28;20235;-50
2021/07/24 01:08:50;;;;;;;15.05;12.10;;;19.50;99.90;;;;;;5071130;28;20234;-49
2021/07/24 01:11:18;;;;;;;14.05;12.65;;;19.40;99.90;;;;;;5071030;28;20298;-50
2021/07/24 01:13:46;;;;;;;14.63;13.13;;;19.40;99.90;;;;;;5071093;28;20675;-53
2021/07/24 01:16:14;;;;;;;13.82;12.38;;;19.40;99.90;;;;;;5071127;28;20203;-51
2021/07/24 01:18:43;;;;;;;14.20;12.13;;;19.40;99.90;;;;;;5073656;28;20231;-50
2021/07/24 01:21:11;;;;;;;15.77;14.20;;;19.40;99.90;;;;;;5075028;28;20231;-52
2021/07/24 01:23:40;;;;;;;15.57;13.98;;;19.40;99.90;;;;;;5074917;28;20207;-49
2021/07/24 01:26:08;;;;;;;14.25;12.68;;;19.40;99.90;;;;;;5074800;28;20221;-51
2021/07/24 01:28:37;;;;;;;14.00;12.60;;;19.40;99.90;;;;;;5074763;28;20326;-52
2021/07/24 01:31:07;;;;;;;14.65;13.00;;;19.30;99.90;;;;;;5074724;28;20250;-49
2021/07/24 01:33:35;;;;;;;17.80;12.50;;;19.30;99.90;;;;;;5074862;28;20429;-51
2021/07/24 01:36:04;;;;;;;13.60;12.13;;;19.30;99.90;;;;;;5074762;28;20203;-49
2021/07/24 01:38:34;;;;;;;13.52;11.65;;;19.30;99.90;;;;;;5074469;28;20243;-47
2021/07/24 01:41:05;;;;;;;14.77;11.77;;;19.30;99.90;;;;;;5074547;28;20728;-50
2021/07/24 01:43:33;;;;;;;14.00;12.63;;;19.30;99.90;;;;;;5074702;28;20298;-49
2021/07/24 01:46:01;;;;;;;15.13;13.00;;;19.30;99.90;;;;;;5074725;28;20231;-46
2021/07/24 01:48:35;;;;;;;13.25;11.85;;;19.20;99.90;;;;;;5074384;28;20234;-48
2021/07/24 01:53:50;;;;;;;15.10;12.13;;;19.10;99.90;;;;;;5074597;28;20306;-50
2021/07/24 01:56:23;;;;;;;13.70;12.40;;;19.10;99.90;;;;;;5074417;28;20219;-48
2021/07/24 01:58:51;;;;;;;14.20;12.80;;;19.00;99.90;;;;;;5074450;28;20203;-50
2021/07/24 02:01:22;;;;;;;13.73;12.27;;;18.90;99.90;;;;;;5074293;28;20211;-50
2021/07/24 02:03:54;;;;;;;12.80;11.50;;;18.80;99.90;;;;;;5074430;28;20264;-47
2021/07/24 02:06:22;;;;;;;14.35;12.65;;;18.70;99.90;;;;;;5074364;28;20211;-46
2021/07/24 02:08:51;;;;;;;16.55;12.45;;;18.70;99.90;;;;;;5073856;28;20237;-47
2021/07/24 02:11:21;;;;;;;14.18;12.88;;;18.60;99.90;;;;;;5073582;28;20310;-46
2021/07/24 02:13:50;;;;;;;14.68;12.93;;;18.60;99.90;;;;;;5074072;28;20218;-47
2021/07/24 02:16:18;;;;;;;14.30;12.02;;;18.60;99.90;;;;;;5074259;28;20230;-50
2021/07/24 02:18:47;;;;;;;14.43;12.90;;;18.50;99.90;;;;;;5073731;28;20690;-50
2021/07/24 02:21:15;;;;;;;18.00;13.93;;;18.50;99.90;;;;;;5073923;28;20289;-47
2021/07/24 02:23:43;;;;;;;14.85;12.38;;;18.50;99.90;;;;;;5073797;28;20298;-51
2021/07/24 02:26:12;;;;;;;13.65;12.25;;;18.40;99.90;;;;;;5073801;28;20301;-48
2021/07/24 02:28:41;;;;;;;14.82;13.00;;;18.40;99.90;;;;;;5073107;28;20227;-47
2021/07/24 02:31:09;;;;;;;14.32;12.95;;;18.30;99.90;;;;;;5073632;28;20294;-46
2021/07/24 02:33:37;;;;;;;13.50;11.82;;;18.30;99.90;;;;;;5073860;28;20230;-46
2021/07/24 02:36:05;;;;;;;14.45;12.95;;;18.30;99.90;;;;;;5073567;28;20738;-47
2021/07/24 02:38:33;;;;;;;15.82;12.95;;;18.40;99.90;;;;;;5073506;28;20294;-49
2021/07/24 02:41:02;;;;;;;14.15;12.75;;;18.40;99.90;;;;;;5073477;28;20306;-46
2021/07/24 02:43:30;;;;;;;17.50;13.68;;;18.40;99.90;;;;;;5073581;28;20519;-47
2021/07/24 02:46:00;;;;;;;17.10;14.57;;;18.40;99.90;;;;;;5073522;28;20298;-50
2021/07/24 02:48:28;;;;;;;14.85;13.45;;;18.40;99.90;;;;;;5073384;28;20575;-47
2021/07/24 02:50:56;;;;;;;15.18;13.18;;;18.30;99.90;;;;;;5073488;28;20299;-49
2021/07/24 02:53:24;;;;;;;16.15;14.45;;;18.40;99.90;;;;;;5073085;28;20231;-48
2021/07/24 02:55:51;;;;;;;15.52;13.82;;;18.30;99.90;;;;;;5073350;28;20294;-50
2021/07/24 02:58:19;;;;;;;16.48;14.77;;;18.30;99.90;;;;;;5073096;28;20207;-47
2021/07/24 03:00:47;;;;;;;16.27;14.68;;;18.30;99.90;;;;;;5073225;28;20310;-46
2021/07/24 03:03:17;;;;;;;20.90;15.40;;;18.30;99.90;;;;;;5073169;28;20282;-49
2021/07/24 03:05:45;;;;;;;15.90;14.20;;;18.30;99.90;;;;;;5072964;28;20207;-50
2021/07/24 03:08:14;;;;;;;16.15;14.45;;;18.20;99.90;;;;;;5072691;28;20665;-47
2021/07/24 03:10:41;;;;;;;18.55;15.30;;;18.20;99.90;;;;;;5073167;28;20558;-46
2021/07/24 03:13:09;;;;;;;16.42;14.77;;;18.20;99.90;;;;;;5072687;28;20214;-46
2021/07/24 03:15:37;;;;;;;16.38;14.63;;;18.20;99.90;;;;;;5072791;28;20217;-45
2021/07/24 03:18:05;;;;;;;18.10;14.13;;;18.20;99.90;;;;;;5072890;28;20243;-50
2021/07/24 03:20:35;;;;;;;16.67;14.88;;;18.10;99.90;;;;;;5072673;28;20286;-46
2021/07/24 03:23:02;;;;;;;17.27;15.40;;;18.00;99.90;;;;;;5072869;28;20229;-48
2021/07/24 03:25:31;;;;;;;15.82;14.32;;;18.00;99.90;;;;;;5072684;28;20338;-47
2021/07/24 03:27:59;;;;;;;17.90;16.00;;;17.90;99.90;;;;;;5072386;28;20570;-47
2021/07/24 03:30:26;;;;;;;16.50;14.73;;;17.90;99.90;;;;;;5072461;28;20223;-47
2021/07/24 03:32:54;;;;;;;17.95;16.13;;;17.90;99.90;;;;;;5072407;28;20212;-47
2021/07/24 03:35:22;;;;;;;15.93;14.32;;;17.90;99.90;;;;;;5073056;28;20215;-46
2021/07/24 03:37:51;;;;;;;16.63;14.98;;;17.80;99.90;;;;;;5072999;28;20207;-46
2021/07/24 03:40:20;;;;;;;16.27;14.68;;;17.80;99.90;;;;;;5071881;28;20214;-50
2021/07/24 03:42:48;;;;;;;16.77;15.18;;;17.80;99.90;;;;;;5072630;28;20215;-44
2021/07/24 03:45:16;;;;;;;19.90;16.85;;;17.80;99.90;;;;;;5072336;28;20207;-46
2021/07/24 03:47:44;;;;;;;17.15;15.02;;;17.70;99.90;;;;;;5072294;28;20307;-46
2021/07/24 03:50:12;;;;;;;17.73;15.93;;;17.70;99.90;;;;;;5072300;28;20319;-46
2021/07/24 03:52:40;;;;;;;18.75;15.45;;;17.70;99.90;;;;;;5071923;28;20195;-49
2021/07/24 03:55:10;;;;;;;17.98;15.68;;;17.60;99.90;;;;;;5072044;28;20306;-47
2021/07/24 03:57:38;;;;;;;17.80;15.48;;;17.60;99.90;;;;;;5072133;28;20353;-47
2021/07/24 04:00:07;;;;;;;17.20;15.45;;;17.60;99.90;;;;;;5072032;28;20577;-48
2021/07/24 04:02:38;;;;;;;17.40;15.27;;;17.60;99.90;;;;;;5071776;28;20223;-48
2021/07/24 04:05:07;;;;;;;18.33;14.90;;;17.70;99.90;;;;;;5071594;28;20268;-46
2021/07/24 04:07:36;;;;;;;15.77;14.23;;;17.70;99.90;;;;;;5071588;28;20208;-47
2021/07/24 04:10:06;;;;;;;17.50;15.48;;;17.80;99.90;;;;;;5071719;28;20237;-48
2021/07/24 04:12:36;;;;;;;18.92;16.13;;;17.80;99.90;;;;;;5071579;28;20298;-49
2021/07/24 04:15:05;;;;;;;19.13;15.57;;;17.80;99.90;;;;;;5072042;28;20294;-50
2021/07/24 04:17:33;;;;;;;17.13;15.20;;;17.90;99.90;;;;;;5071787;28;20218;-46
2021/07/24 04:20:02;;;;;;;16.23;14.55;;;17.90;99.90;;;;;;5071928;28;20226;-46
2021/07/24 04:22:30;;;;;;;18.27;14.98;;;18.00;99.90;;;;;;5071711;28;20570;-46
2021/07/24 04:24:58;;;;;;;16.00;14.32;;;18.10;99.90;;;;;;5071801;28;20211;-47
2021/07/24 04:27:26;;;;;;;16.17;14.50;;;18.10;99.90;;;;;;5071519;28;20207;-48
2021/07/24 04:29:58;;;;;;;16.40;14.48;;;18.10;99.90;;;;;;5071759;28;20560;-50
2021/07/24 04:32:26;;;;;;;17.10;15.40;;;18.20;99.90;;;;;;5071607;28;20306;-48
2021/07/24 04:34:54;;;;;;;16.98;14.73;;;18.20;99.90;;;;;;5071674;28;20207;-49
2021/07/24 04:37:22;;;;;;;17.02;15.05;;;18.20;99.90;;;;;;5071621;28;20279;-48
2021/07/24 04:39:51;;;;;;;16.17;14.65;;;18.20;99.90;;;;;;5072017;28;20210;-48
2021/07/24 04:42:18;;;;;;;17.20;14.93;;;18.30;99.90;;;;;;5071757;28;20211;-48
2021/07/24 04:44:46;;;;;;;16.17;14.48;;;18.40;99.90;;;;;;5071543;28;20701;-46
2021/07/24 04:47:15;;;;;;;17.25;14.75;;;18.40;99.90;;;;;;5071564;28;20221;-51
2021/07/24 04:49:48;;;;;;;17.23;15.15;;;18.50;99.90;;;;;;5071638;28;20243;-49
2021/07/24 04:52:16;;;;;;;16.98;15.18;;;18.60;99.90;;;;;;5073215;28;20217;-51
2021/07/24 04:54:46;;;;;;;16.95;14.90;;;18.70;99.90;;;;;;5075659;28;20314;-50
2021/07/24 04:57:15;;;;;;;16.98;15.30;;;18.80;99.90;;;;;;5075399;28;20293;-52
2021/07/24 04:59:47;;;;;;;15.77;14.20;;;18.80;99.90;;;;;;5075378;28;20199;-47
2021/07/24 05:02:18;;;;;;;16.63;14.98;;;18.90;99.90;;;;;;5075692;28;20211;-48
2021/07/24 05:04:47;;;;;;;20.20;14.05;;;19.00;99.90;;;;;;5075504;28;20303;-48
2021/07/24 05:07:17;;;;;;;16.92;14.93;;;19.10;99.90;;;;;;5075650;28;20298;-50
2021/07/24 05:09:46;;;;;;;21.27;15.45;;;19.20;99.90;;;;;;5075704;28;20231;-52
2021/07/24 05:12:14;;;;;;;16.05;14.35;;;19.30;99.90;;;;;;5075558;28;20289;-45
2021/07/24 05:14:42;;;;;;;17.92;14.30;;;19.40;99.90;;;;;;5075428;28;20291;-44
2021/07/24 05:17:12;;;;;;;17.17;13.60;;;19.50;99.90;;;;;;5075250;28;20243;-46
2021/07/24 05:19:43;;;;;;;15.95;14.38;;;19.60;99.90;;;;;;5075107;28;20369;-46
2021/07/24 05:22:13;;;;;;;16.33;14.70;;;19.70;99.90;;;;;;5075435;28;20207;-47
2021/07/24 05:24:44;;;;;;;17.77;15.73;;;19.70;99.90;;;;;;5075161;28;20674;-46
2021/07/24 05:27:12;;;;;;;16.80;14.23;;;19.80;99.90;;;;;;5075126;28;20624;-46
2021/07/24 05:29:40;;;;;;;15.80;14.15;;;19.90;99.90;;;;;;5074895;28;20302;-45
2021/07/24 05:32:09;;;;;;;16.83;15.13;;;20.00;99.90;;;;;;5074921;28;20215;-45
2021/07/24 05:34:37;;;;;;;17.25;14.13;;;20.10;99.90;;;;;;5075091;28;20212;-47
2021/07/24 05:37:06;;;;;;;15.40;13.82;;;20.20;99.90;;;;;;5074750;28;20302;-47
2021/07/24 05:39:34;;;;;;;15.82;13.40;;;20.40;99.90;;;;;;5074634;28;20226;-47
2021/07/24 05:42:02;;;;;;;17.33;14.65;;;20.50;99.90;;;;;;5074827;28;20690;-46
2021/07/24 05:44:30;;;;;;;18.25;15.55;;;20.70;99.90;;;;;;5074882;28;20313;-48
2021/07/24 05:47:01;;;;;;;18.50;15.15;;;20.90;99.90;;;;;;5074614;28;20206;-46
2021/07/24 05:49:29;;;;;;;16.48;14.63;;;21.00;99.90;;;;;;5074623;28;20215;-47
2021/07/24 05:51:57;;;;;;;15.70;14.20;;;21.20;99.90;;;;;;5074503;28;20266;-49
2021/07/24 05:54:27;;;;;;;16.48;14.63;;;21.30;99.90;;;;;;5074266;28;20291;-50
2021/07/24 05:56:55;;;;;;;18.15;14.38;;;21.40;99.90;;;;;;5074081;28;20210;-46
2021/07/24 05:59:23;;;;;;;16.65;14.90;;;21.30;99.90;;;;;;5073634;28;20245;-49
2021/07/24 06:01:51;;;;;;;15.57;13.88;;;21.30;99.90;;;;;;5074445;28;20222;-47
2021/07/24 06:04:19;;;;;;;15.82;14.13;;;21.20;99.90;;;;;;5073535;28;20298;-49
2021/07/24 06:06:47;;;;;;;15.05;13.45;;;21.10;99.90;;;;;;5074415;28;20298;-45
2021/07/24 06:09:15;;;;;;;20.77;13.93;;;21.00;99.90;;;;;;5074424;28;20299;-50
2021/07/24 06:11:44;;;;;;;16.63;14.60;;;21.00;99.90;;;;;;5074361;28;20315;-48
2021/07/24 06:14:23;;;;;;;14.50;13.00;;;20.90;99.90;;;;;;5074241;28;20233;-47
2021/07/24 06:16:51;;;;;;;17.15;14.15;;;20.90;99.90;;;;;;5074078;28;20214;-49
2021/07/24 06:19:20;;;;;;;16.17;14.35;;;20.90;99.90;;;;;;5074084;28;20246;-51
2021/07/24 06:21:48;;;;;;;15.05;12.95;;;21.00;99.90;;;;;;5074053;28;20256;-48
2021/07/24 06:24:16;;;;;;;15.98;14.30;;;21.20;99.90;;;;;;5074330;28;20253;-49
2021/07/24 06:26:46;;;;;;;15.65;14.02;;;21.40;99.90;;;;;;5074079;28;20246;-51
2021/07/24 06:29:14;;;;;;;17.45;13.70;;;21.60;99.90;;;;;;5073873;28;20724;-51
2021/07/24 06:31:42;;;;;;;16.10;13.48;;;21.80;99.90;;;;;;5073735;28;20318;-47
2021/07/24 06:34:10;;;;;;;16.25;13.48;;;22.00;99.90;;;;;;5073543;28;20274;-50
2021/07/24 06:36:39;;;;;;;15.25;13.75;;;22.30;99.90;;;;;;5073669;28;20505;-49
2021/07/24 06:39:07;;;;;;;15.40;13.93;;;22.50;99.90;;;;;;5073316;28;20252;-48
2021/07/24 06:41:35;;;;;;;14.20;12.80;;;22.70;99.90;;;;;;5073645;28;20298;-47
2021/07/24 06:44:05;;;;;;;15.38;13.77;;;22.80;99.90;;;;;;5073592;28;20250;-48
2021/07/24 06:46:32;;;;;;;19.92;14.27;;;22.80;99.90;;;;;;5073658;28;20370;-48
2021/07/24 06:49:01;;;;;;;17.33;14.02;;;22.90;99.90;;;;;;5073563;28;20214;-47
2021/07/24 06:51:28;;;;;;;17.75;13.15;;;22.90;99.90;;;;;;5073625;28;20394;-48
2021/07/24 06:53:56;;;;;;;14.48;12.77;;;23.00;99.90;;;;;;5073742;28;20226;-49
2021/07/24 06:56:24;;;;;;;14.93;13.45;;;22.90;99.90;;;;;;5073481;28;20207;-50
2021/07/24 06:58:52;;;;;;;15.20;13.52;;;22.90;99.90;;;;;;5073545;28;20301;-48
2021/07/24 07:01:21;;;;;;;16.60;13.70;;;22.80;99.90;;;;;;5073571;28;20828;-48
2021/07/24 07:03:50;;;;;;;15.70;13.38;;;22.80;99.90;;;;;;5073004;28;20212;-51
2021/07/24 07:06:17;;;;;;;15.38;13.77;;;22.70;99.90;;;;;;5073458;28;20302;-48
2021/07/24 07:08:45;;;;;;;17.25;13.48;;;22.60;99.90;;;;;;5073480;28;20299;-50
2021/07/24 07:11:14;;;;;;;16.92;13.23;;;22.60;99.90;;;;;;5072997;28;20226;-48
2021/07/24 07:13:41;;;;;;;14.70;12.80;;;22.60;99.90;;;;;;5073095;28;20332;-50
2021/07/24 07:16:10;;;;;;;15.55;13.70;;;22.60;99.90;;;;;;5073609;28;20227;-51
2021/07/24 07:18:40;;;;;;;15.65;14.15;;;22.60;99.90;;;;;;5073010;28;20242;-45
2021/07/24 07:21:09;;;;;;;16.35;13.75;;;22.70;99.90;;;;;;5072989;28;20203;-48
2021/07/24 07:23:37;;;;;;;15.55;12.82;;;22.80;99.90;;;;;;5073020;28;20600;-52
2021/07/24 07:26:05;;;;;;;15.02;13.05;;;22.70;99.90;;;;;;5073243;28;20677;-54
2021/07/24 07:28:33;;;;;;;14.88;13.38;;;22.60;99.90;;;;;;5072693;28;20238;-46
2021/07/24 07:31:01;;;;;;;17.17;14.07;;;22.60;99.90;;;;;;5072802;28;20270;-48
2021/07/24 07:33:29;;;;;;;14.68;13.18;;;22.40;99.90;;;;;;5072812;28;20207;-49
2021/07/24 07:35:58;;;;;;;15.32;13.82;;;22.30;99.90;;;;;;5072587;28;20250;-51
2021/07/24 07:38:26;;;;;;;14.48;12.88;;;22.20;99.90;;;;;;5072498;28;20208;-47
2021/07/24 07:40:54;;;;;;;16.42;14.85;;;21.90;99.90;;;;;;5072322;28;20207;-49
2021/07/24 07:43:22;;;;;;;15.10;13.50;;;21.80;99.90;;;;;;5072606;28;20310;-47
2021/07/24 07:45:50;;;;;;;15.95;14.35;;;21.70;99.90;;;;;;5072521;28;20225;-49
2021/07/24 07:48:18;;;;;;;16.38;14.38;;;21.70;99.90;;;;;;5072216;28;20218;-46
2021/07/24 07:50:46;;;;;;;14.45;13.07;;;21.70;99.90;;;;;;5072267;28;20294;-49
2021/07/24 07:53:15;;;;;;;15.88;13.48;;;21.80;99.90;;;;;;5072024;28;20211;-47
2021/07/24 07:55:43;;;;;;;18.30;16.25;;;21.90;99.90;;;;;;5072066;28;20306;-48
2021/07/24 07:58:11;;;;;;;14.90;13.43;;;22.10;99.90;;;;;;5072382;28;20362;-50
2021/07/24 08:00:39;;;;;;;15.90;14.30;;;22.20;99.90;;;;;;5072248;28;20304;-48
2021/07/24 08:03:07;;;;;;;15.55;13.95;;;22.20;99.90;;;;;;5072190;28;20298;-47
2021/07/24 08:05:35;;;;;;;16.50;14.80;;;22.30;99.90;;;;;;5072741;28;20621;-49
2021/07/24 08:08:04;;;;;;;15.18;13.68;;;22.40;99.90;;;;;;5072134;28;20295;-50
2021/07/24 08:10:34;;;;;;;16.48;14.20;;;22.60;99.90;;;;;;5072290;28;20230;-50
2021/07/24 08:13:11;;;;;;;17.17;14.85;;;22.70;99.90;;;;;;5072124;28;20223;-47
2021/07/24 08:15:40;;;;;;;18.27;14.30;;;22.80;99.90;;;;;;5071938;28;20322;-48
2021/07/24 08:18:08;;;;;;;22.60;15.95;;;23.00;99.90;;;;;;5071871;28;20281;-48
2021/07/24 08:20:40;;;;;;;15.63;13.50;;;23.10;99.90;;;;;;5071821;28;20207;-50
2021/07/24 08:23:10;;;;;;;19.50;14.55;;;23.20;99.90;;;;;;5072063;28;20294;-48
2021/07/24 08:25:39;;;;;;;15.52;13.95;;;23.30;99.90;;;;;;5071912;28;20302;-48
2021/07/24 08:28:08;;;;;;;15.57;13.95;;;23.40;99.90;;;;;;5071442;28;20306;-48
2021/07/24 08:30:36;;;;;;;15.50;13.65;;;23.60;99.90;;;;;;5071556;28;20290;-47
2021/07/24 08:33:04;;;;;;;16.00;14.43;;;23.70;99.90;;;;;;5071405;28;20774;-51
2021/07/24 08:35:32;;;;;;;16.15;13.88;;;23.70;99.90;;;;;;5071923;28;20302;-47
2021/07/24 08:38:00;;;;;;;19.95;14.60;;;23.80;99.90;;;;;;5072072;28;20250;-47
2021/07/24 08:40:28;;;;;;;16.27;14.60;;;23.80;99.90;;;;;;5071716;28;20223;-49
2021/07/24 08:43:04;;;;;;;17.20;15.27;;;23.70;99.90;;;;;;5071999;28;20207;-48
2021/07/24 08:45:32;;;;;;;19.20;15.52;;;23.50;99.90;;;;;;5071778;28;20310;-49
2021/07/24 08:48:03;;;;;;;15.27;13.70;;;23.50;99.90;;;;;;5072010;28;20257;-53
2021/07/24 08:50:32;;;;;;;15.48;13.98;;;23.40;99.90;;;;;;5071885;28;20222;-50
2021/07/24 08:53:05;;;;;;;16.00;14.38;;;23.40;99.90;;;;;;5071720;28;20227;-48
2021/07/24 08:55:34;;;;;;;15.82;14.25;;;23.30;99.90;;;;;;5072058;28;20286;-48
2021/07/24 08:58:04;;;;;;;17.15;15.02;;;23.40;99.90;;;;;;5071438;28;20693;-49
2021/07/24 09:00:32;;;;;;;18.60;15.00;;;23.40;99.90;;;;;;5071705;28;20682;-47
2021/07/24 09:03:02;;;;;;;16.02;14.52;;;23.50;99.90;;;;;;5072361;28;20207;-47
2021/07/24 09:05:31;;;;;;;15.82;14.02;;;23.50;99.90;;;;;;5071741;28;20265;-51
2021/07/24 09:08:02;;;;;;;16.42;14.82;;;23.60;99.90;;;;;;5071699;28;20249;-50
2021/07/24 09:10:31;;;;;;;15.85;14.15;;;23.70;99.90;;;;;;5071290;28;20320;-50
2021/07/24 09:12:58;;;;;;;18.02;14.25;;;23.90;99.90;;;;;;5071487;28;20353;-48
2021/07/24 09:15:28;;;;;;;15.07;13.57;;;24.10;99.90;;;;;;5071603;28;20246;-47
2021/07/24 09:17:56;;;;;;;15.23;13.63;;;24.40;99.90;;;;;;5071324;28;20297;-46
2021/07/24 09:20:26;;;;;;;15.38;13.00;;;24.60;99.90;;;;;;5071355;28;20302;-52
2021/07/24 09:22:54;;;;;;;15.93;14.32;;;24.70;99.90;;;;;;5071563;28;20235;-49
2021/07/24 09:25:23;;;;;;;15.27;13.88;;;24.80;99.70;;;;;;5071368;28;20294;-48
2021/07/24 09:27:53;;;;;;;15.45;12.50;;;25.00;99.30;;;;;;5071504;28;20208;-49
2021/07/24 09:30:32;;;;;;;15.15;13.35;;;25.30;98.80;;;;;;5071426;28;20209;-48
2021/07/24 09:33:05;;;;;;;14.63;13.13;;;25.50;98.30;;;;;;5071315;28;20289;-49
2021/07/24 09:35:38;;;;;;;15.55;13.88;;;25.80;97.70;;;;;;5071682;28;20215;-48
2021/07/24 09:38:07;;;;;;;14.77;13.27;;;25.90;97.50;;;;;;5071531;28;20307;-50
2021/07/24 09:40:36;;;;;;;14.35;12.75;;;26.00;97.10;;;;;;5075126;28;20215;-50
2021/07/24 09:43:05;;;;;;;15.70;14.10;;;26.00;96.70;;;;;;5074921;28;20714;-45
2021/07/24 09:45:34;;;;;;;15.02;13.60;;;26.10;96.40;;;;;;5074783;28;20211;-49
2021/07/24 09:48:15;;;;;;;14.43;12.93;;;26.00;96.10;;;;;;5074714;28;20759;-49
2021/07/24 09:50:48;;;;;;;14.70;13.30;;;26.00;95.70;;;;;;5074720;28;20623;-45
2021/07/24 09:53:34;;;;;;;15.85;14.25;;;26.00;96.00;;;;;;5074968;28;20255;-46
2021/07/24 09:56:03;;;;;;;15.75;12.73;;;26.10;96.10;;;;;;5074895;28;20235;-47
2021/07/24 09:58:31;;;;;;;14.68;13.20;;;26.10;96.00;;;;;;5074575;28;20686;-50
2021/07/24 10:01:04;;;;;;;14.55;13.07;;;26.00;95.90;;;;;;5074689;28;20299;-48
2021/07/24 10:03:35;;;;;;;14.85;13.35;;;25.90;95.80;;;;;;5074787;28;20246;-47
2021/07/24 10:06:11;;;;;;;14.50;13.00;;;25.80;95.80;;;;;;5074433;28;20580;-47
2021/07/24 10:08:41;;;;;;;14.93;12.90;;;25.70;95.80;;;;;;5074396;28;20317;-45
2021/07/24 10:11:09;;;;;;;14.27;12.82;;;25.80;95.90;;;;;;5074440;28;20211;-46
2021/07/24 10:13:39;;;;;;;15.60;14.02;;;25.80;95.70;;;;;;5074394;28;20241;-47
2021/07/24 10:16:09;;;;;;;15.38;13.77;;;25.90;95.50;;;;;;5074271;28;20280;-47
2021/07/24 10:18:39;;;;;;;14.23;12.75;;;25.90;95.30;;;;;;5074182;28;20640;-47
2021/07/24 10:21:07;;;;;;;14.30;12.68;;;25.90;95.40;;;;;;5074278;28;20269;-46
2021/07/24 10:23:35;;;;;;;14.25;12.88;;;25.90;95.40;;;;;;5074153;28;20298;-45
2021/07/24 10:26:11;;;;;;;16.00;14.32;;;25.90;95.60;;;;;;5074267;28;20302;-48
2021/07/24 10:29:00;;;;;;;17.25;13.30;;;25.90;95.40;;;;;;5074305;28;20218;-47
2021/07/24 10:31:33;;;;;;;14.85;13.43;;;25.80;95.40;;;;;;5074056;28;20214;-46
2021/07/24 10:34:05;;;;;;;15.10;13.70;;;25.90;95.50;;;;;;5074001;28;20234;-47
2021/07/24 10:36:38;;;;;;;16.48;14.88;;;26.00;95.50;;;;;;5074039;28;20568;-47
2021/07/24 10:39:08;;;;;;;15.30;13.70;;;26.00;95.40;;;;;;5073934;28;20573;-46
2021/07/24 10:41:41;;;;;;;15.80;14.13;;;26.00;95.40;;;;;;5073824;28;20211;-47
2021/07/24 10:44:11;;;;;;;14.75;13.20;;;26.10;95.20;;;;;;5073775;28;20261;-50
2021/07/24 10:47:17;;;;;;;15.48;13.88;;;26.20;95.20;;;;;;5073665;28;20235;-48
2021/07/24 10:50:05;;;;;;;15.13;13.52;;;26.20;95.10;;;;;;5073775;28;20298;-45
2021/07/24 10:53:11;;;;;;;17.42;14.30;;;26.00;95.40;;;;;;5073493;28;20226;-47
2021/07/24 10:55:41;;;;;;;17.15;14.27;;;25.80;95.60;;;;;;5073764;28;20218;-45
2021/07/24 10:58:09;;;;;;;16.40;14.60;;;25.60;96.00;;;;;;5073692;28;20215;-46
2021/07/24 11:00:53;;;;;;;17.00;15.23;;;25.50;96.20;;;;;;5073720;28;20306;-46
2021/07/24 11:03:49;;;;;;;18.55;14.48;;;25.50;96.30;;;;;;5073743;28;20203;-45
2021/07/24 11:06:29;;;;;;;16.10;14.60;;;25.60;96.40;;;;;;5073600;28;20239;-45
2021/07/24 11:09:17;;;;;;;18.45;15.45;;;25.50;96.40;;;;;;5073519;28;20724;-45
2021/07/24 11:11:47;;;;;;;16.85;15.13;;;25.60;96.60;;;;;;5073810;28;20235;-45
2021/07/24 11:14:57;;;;;;;16.52;14.77;;;25.60;96.60;;;;;;5073109;28;20263;-46
2021/07/24 11:17:26;;;;;;;18.38;16.38;;;25.70;96.40;;;;;;5072633;28;20577;-46
2021/07/24 11:20:33;;;;;;;20.45;16.27;;;25.70;96.40;;;;;;5072643;28;20207;-46
2021/07/24 11:23:09;;;;;;;16.52;14.95;;;25.80;96.50;;;;;;5072892;28;20207;-45
2021/07/24 11:25:40;;;;;;;18.00;16.13;;;25.80;96.40;;;;;;5072813;28;20246;-46
2021/07/24 11:28:09;;;;;;;14.77;13.32;;;25.90;96.30;;;;;;5072722;28;20261;-45
2021/07/24 11:30:37;;;;;;;17.00;15.27;;;26.10;96.10;;;;;;5072776;28;20303;-47
2021/07/24 11:33:06;;;;;;;17.48;14.73;;;26.30;95.90;;;;;;5072740;28;20712;-45
2021/07/24 11:35:37;;;;;;;15.80;14.30;;;26.40;95.60;;;;;;5072906;28;20312;-51
2021/07/24 11:38:20;;;;;;;15.75;14.15;;;26.50;95.60;;;;;;5072490;28;20303;-50
2021/07/24 11:40:59;;;;;;;17.60;15.80;;;26.40;95.50;;;;;;5072494;28;20298;-48
2021/07/24 11:43:27;;;;;;;16.10;14.40;;;26.50;95.30;;;;;;5072598;28;20297;-48
2021/07/24 11:46:04;;;;;;;15.98;14.38;;;26.70;95.20;;;;;;5072229;28;20213;-47
2021/07/24 11:48:32;;;;;;;17.90;16.10;;;26.90;94.90;;;;;;5072442;28;20210;-47
2021/07/24 11:51:05;;;;;;;16.95;15.20;;;27.20;94.50;;;;;;5072367;28;20674;-52
2021/07/24 11:53:35;;;;;;;18.45;16.48;;;27.50;94.10;;;;;;5072438;28;20237;-48
2021/07/24 11:56:09;;;;;;;25.05;22.42;;;27.60;93.70;;;;;;5072103;28;20677;-44
2021/07/24 11:58:38;;;;;;;17.23;14.95;;;27.80;93.30;;;;;;5072006;28;20211;-48
2021/07/24 12:01:20;;;;;;;16.52;14.82;;;28.10;92.70;;;;;;5071598;28;20353;-47
2021/07/24 12:04:03;;;;;;;15.45;13.98;;;28.40;92.00;;;;;;5072278;28;20211;-47
2021/07/24 12:06:32;;;;;;;17.05;15.18;;;28.50;91.70;;;;;;5071780;28;20727;-46
2021/07/24 12:09:02;;;;;;;16.48;14.88;;;28.50;91.50;;;;;;5071901;28;20215;-46
2021/07/24 12:11:30;;;;;;;17.48;14.43;;;28.60;91.20;;;;;;5071989;28;20214;-45
2021/07/24 12:14:03;;;;;;;15.55;13.95;;;28.50;91.00;;;;;;5071833;28;20276;-46
2021/07/24 12:16:40;;;;;;;15.90;14.20;;;28.40;90.70;;;;;;5071986;28;20293;-47
2021/07/24 12:19:13;;;;;;;14.07;12.77;;;28.20;90.80;;;;;;5071760;28;20247;-45
2021/07/24 12:21:41;;;;;;;14.95;13.35;;;28.10;90.90;;;;;;5071953;28;20737;-47
2021/07/24 12:24:13;;;;;;;14.68;13.18;;;27.80;91.00;;;;;;5071823;28;20621;-46
2021/07/24 12:26:45;;;;;;;15.85;14.25;;;27.70;91.20;;;;;;5071729;28;20572;-47
2021/07/24 12:29:24;;;;;;;16.23;14.30;;;27.60;91.30;;;;;;5071815;28;20651;-46
2021/07/24 12:31:53;;;;;;;14.40;12.90;;;27.50;91.40;;;;;;5072100;28;20306;-46
2021/07/24 12:34:22;;;;;;;15.55;14.15;;;27.40;91.70;;;;;;5071970;28;20695;-48
2021/07/24 12:36:52;;;;;;;15.52;13.93;;;27.40;91.90;;;;;;5071966;28;20757;-49
2021/07/24 12:39:23;;;;;;;15.15;13.65;;;27.30;91.90;;;;;;5071850;28;20705;-46
2021/07/24 12:42:01;;;;;;;14.75;13.25;;;27.30;91.80;;;;;;5071832;28;20218;-46
2021/07/24 12:44:30;;;;;;;16.98;14.77;;;27.40;91.80;;;;;;5071946;28;20290;-46
2021/07/24 12:47:12;;;;;;;15.65;13.82;;;27.40;91.70;;;;;;5071749;28;20247;-47